createdAt,value
2016-11-27T00:00:07.716Z,96.80
2016-11-27T00:01:08.768Z,96.19
2016-11-27T00:02:16.031Z,95.76
2016-11-27T00:03:07.629Z,95.38
2016-11-27T00:04:08.218Z,95.92
2016-11-27T00:05:07.804Z,96.15
2016-11-27T00:06:08.364Z,97.68
2016-11-27T00:07:08.852Z,97.09
2016-11-27T00:08:08.469Z,96.15
2016-11-27T00:09:08.049Z,96.28
2016-11-27T00:10:07.557Z,95.93
2016-11-27T00:11:08.170Z,95.65
2016-11-27T00:12:07.783Z,95.77
2016-11-27T00:13:08.514Z,96.41
2016-11-27T00:14:08.165Z,95.24
2016-11-27T00:15:07.716Z,94.52
2016-11-27T00:16:08.753Z,95.54
2016-11-27T00:17:08.305Z,95.73
2016-11-27T00:18:07.487Z,95.20
2016-11-27T00:19:08.061Z,95.14
2016-11-27T00:20:07.633Z,95.78
2016-11-27T00:21:08.181Z,95.54
2016-11-27T00:22:07.736Z,95.73
2016-11-27T00:23:08.377Z,96.17
2016-11-27T00:24:07.943Z,96.19
2016-11-27T00:25:07.565Z,96.30
2016-11-27T00:26:08.212Z,96.03
2016-11-27T00:27:08.025Z,96.06
2016-11-27T00:28:07.581Z,95.23
2016-11-27T00:29:08.251Z,95.91
2016-11-27T00:30:07.812Z,95.49
2016-11-27T00:31:08.332Z,95.39
2016-11-27T00:32:07.894Z,94.31
2016-11-27T00:33:08.447Z,94.36
2016-11-27T00:34:08.074Z,95.02
2016-11-27T00:35:07.663Z,95.40
2016-11-27T00:36:08.268Z,95.59
2016-11-27T00:37:07.814Z,95.76
2016-11-27T00:38:08.515Z,94.65
2016-11-27T00:39:08.094Z,94.66
2016-11-27T00:40:07.732Z,95.54
2016-11-27T00:41:08.461Z,95.15
2016-11-27T00:42:07.996Z,95.38
2016-11-27T00:43:07.473Z,95.91
2016-11-27T00:44:07.979Z,95.56
2016-11-27T00:45:07.710Z,95.26
2016-11-27T00:46:08.379Z,95.30
2016-11-27T00:47:07.985Z,95.16
2016-11-27T00:48:07.547Z,95.88
2016-11-27T00:49:08.183Z,94.19
2016-11-27T00:50:07.777Z,95.76
2016-11-27T00:51:08.306Z,96.14
2016-11-27T00:52:07.843Z,94.96
2016-11-27T00:53:08.496Z,94.95
2016-11-27T00:54:08.455Z,95.86
2016-11-27T00:55:07.991Z,95.85
2016-11-27T00:56:08.174Z,96.58
2016-11-27T00:57:07.672Z,95.96
2016-11-27T00:58:08.153Z,95.86
2016-11-27T00:59:07.706Z,95.81
2016-11-27T01:00:08.544Z,95.19
2016-11-27T01:01:08.155Z,95.91
2016-11-27T01:02:07.619Z,95.57
2016-11-27T01:03:08.252Z,95.66
2016-11-27T01:04:07.844Z,96.10
2016-11-27T01:05:08.537Z,96.59
2016-11-27T01:06:08.114Z,96.04
2016-11-27T01:07:07.678Z,96.04
2016-11-27T01:08:08.255Z,95.93
2016-11-27T01:09:07.436Z,94.99
2016-11-27T01:10:07.742Z,94.47
2016-11-27T01:11:07.626Z,95.28
2016-11-27T01:12:08.057Z,95.45
2016-11-27T01:13:08.495Z,94.90
2016-11-27T01:14:08.111Z,94.79
2016-11-27T01:15:07.732Z,94.33
2016-11-27T01:16:07.902Z,94.03
2016-11-27T01:17:08.625Z,94.08
2016-11-27T01:18:08.318Z,94.80
2016-11-27T01:19:07.825Z,95.65
2016-11-27T01:20:08.209Z,95.20
2016-11-27T01:21:08.147Z,96.32
2016-11-27T01:22:08.023Z,95.67
2016-11-27T01:23:07.578Z,95.46
2016-11-27T01:24:08.071Z,94.83
2016-11-27T01:25:07.717Z,95.13
2016-11-27T01:26:08.360Z,95.13
2016-11-27T01:27:07.536Z,94.42
2016-11-27T01:28:08.450Z,94.97
2016-11-27T01:29:08.510Z,95.91
2016-11-27T01:30:07.712Z,96.17
2016-11-27T01:31:08.220Z,96.35
2016-11-27T01:32:08.071Z,96.29
2016-11-27T01:33:08.555Z,96.06
2016-11-27T01:34:08.162Z,95.52
2016-11-27T01:35:07.654Z,96.27
2016-11-27T01:36:07.727Z,97.81
2016-11-27T01:37:08.340Z,97.29
2016-11-27T01:38:07.858Z,96.88
2016-11-27T01:39:08.607Z,96.57
2016-11-27T01:40:08.212Z,96.74
2016-11-27T01:41:07.753Z,96.77
2016-11-27T01:42:08.347Z,97.13
2016-11-27T01:43:07.893Z,97.01
2016-11-27T01:44:07.519Z,96.76
2016-11-27T01:45:08.041Z,96.42
2016-11-27T01:46:07.597Z,95.78
2016-11-27T01:47:08.150Z,96.77
2016-11-27T01:48:08.148Z,96.94
2016-11-27T01:49:07.681Z,95.85
2016-11-27T01:50:08.351Z,96.09
2016-11-27T01:51:07.939Z,97.01
2016-11-27T01:52:07.519Z,97.29
2016-11-27T01:53:08.099Z,96.77
2016-11-27T01:54:07.653Z,96.45
2016-11-27T01:55:08.275Z,95.49
2016-11-27T01:56:07.879Z,95.75
2016-11-27T01:57:07.915Z,96.62
2016-11-27T01:58:14.399Z,96.90
2016-11-27T01:59:13.877Z,96.86
2016-11-27T02:00:08.424Z,96.01
2016-11-27T02:01:08.150Z,95.63
2016-11-27T02:02:07.938Z,95.51
2016-11-27T02:03:07.635Z,95.50
2016-11-27T02:04:08.384Z,95.76
2016-11-27T02:05:07.880Z,95.54
2016-11-27T02:06:08.343Z,95.59
2016-11-27T02:07:07.824Z,94.85
2016-11-27T02:08:07.813Z,95.56
2016-11-27T02:09:08.333Z,94.74
2016-11-27T02:10:07.501Z,94.32
2016-11-27T02:11:07.698Z,94.23
2016-11-27T02:12:08.126Z,94.27
2016-11-27T02:13:08.368Z,94.01
2016-11-27T02:14:07.850Z,94.68
2016-11-27T02:15:08.535Z,95.31
2016-11-27T02:16:08.272Z,94.50
2016-11-27T02:17:08.008Z,96.00
2016-11-27T02:18:07.791Z,95.88
2016-11-27T02:19:08.230Z,95.31
2016-11-27T02:20:07.644Z,95.65
2016-11-27T02:21:08.373Z,95.16
2016-11-27T02:22:07.869Z,94.70
2016-11-27T02:23:07.663Z,95.84
2016-11-27T02:24:07.689Z,95.66
2016-11-27T02:25:08.125Z,95.45
2016-11-27T02:26:08.462Z,94.66
2016-11-27T02:27:08.129Z,94.02
2016-11-27T02:28:07.820Z,94.11
2016-11-27T02:29:08.533Z,93.93
2016-11-27T02:30:08.133Z,93.43
2016-11-27T02:31:07.803Z,93.83
2016-11-27T02:32:08.453Z,94.29
2016-11-27T02:33:07.910Z,94.28
2016-11-27T02:34:07.633Z,93.96
2016-11-27T02:35:08.386Z,94.24
2016-11-27T02:36:08.033Z,93.82
2016-11-27T02:37:07.588Z,93.57
2016-11-27T02:38:08.525Z,94.28
2016-11-27T02:39:08.176Z,94.65
2016-11-27T02:40:07.751Z,93.75
2016-11-27T02:41:08.312Z,93.50
2016-11-27T02:42:07.844Z,93.49
2016-11-27T02:43:08.323Z,92.84
2016-11-27T02:44:08.109Z,93.18
2016-11-27T02:45:07.770Z,93.48
2016-11-27T02:46:08.333Z,93.57
2016-11-27T02:47:07.920Z,93.06
2016-11-27T02:48:08.631Z,92.88
2016-11-27T02:49:08.337Z,93.41
2016-11-27T02:50:07.833Z,92.85
2016-11-27T02:51:08.450Z,93.01
2016-11-27T02:52:08.109Z,93.47
2016-11-27T02:53:07.589Z,93.18
2016-11-27T02:54:08.234Z,92.51
2016-11-27T02:55:07.741Z,92.92
2016-11-27T02:56:08.331Z,93.51
2016-11-27T02:57:07.879Z,93.31
2016-11-27T02:58:08.400Z,93.25
2016-11-27T02:59:07.991Z,94.26
2016-11-27T03:00:07.857Z,93.29
2016-11-27T03:01:08.420Z,94.11
2016-11-27T03:02:08.121Z,94.87
2016-11-27T03:03:07.637Z,93.96
2016-11-27T03:04:08.292Z,93.51
2016-11-27T03:05:07.790Z,93.02
2016-11-27T03:06:08.326Z,93.14
2016-11-27T03:07:07.884Z,93.72
2016-11-27T03:08:08.572Z,93.13
2016-11-27T03:09:08.575Z,93.16
2016-11-27T03:10:08.167Z,93.82
2016-11-27T03:11:07.764Z,93.46
2016-11-27T03:12:08.381Z,93.58
2016-11-27T03:13:07.921Z,93.58
2016-11-27T03:14:08.527Z,93.52
2016-11-27T03:15:08.203Z,93.29
2016-11-27T03:16:07.791Z,94.19
2016-11-27T03:17:08.592Z,93.56
2016-11-27T03:18:08.432Z,93.56
2016-11-27T03:19:07.881Z,94.00
2016-11-27T03:20:08.376Z,94.62
2016-11-27T03:21:07.881Z,95.00
2016-11-27T03:22:08.526Z,94.80
2016-11-27T03:23:08.131Z,95.18
2016-11-27T03:24:07.699Z,94.69
2016-11-27T03:25:08.304Z,95.18
2016-11-27T03:26:07.830Z,95.12
2016-11-27T03:27:07.703Z,95.18
2016-11-27T03:28:08.430Z,94.15
2016-11-27T03:29:08.023Z,94.94
2016-11-27T03:30:07.592Z,94.65
2016-11-27T03:31:08.179Z,95.56
2016-11-27T03:32:07.750Z,95.83
2016-11-27T03:33:08.406Z,95.17
2016-11-27T03:34:07.980Z,94.92
2016-11-27T03:35:07.531Z,95.20
2016-11-27T03:36:08.142Z,95.43
2016-11-27T03:37:07.738Z,94.43
2016-11-27T03:38:08.407Z,94.71
2016-11-27T03:39:07.963Z,94.97
2016-11-27T03:40:07.524Z,94.70
2016-11-27T03:41:08.009Z,95.02
2016-11-27T03:42:07.585Z,95.21
2016-11-27T03:43:08.255Z,94.80
2016-11-27T03:44:07.896Z,95.73
2016-11-27T03:45:07.988Z,95.69
2016-11-27T03:46:07.485Z,95.01
2016-11-27T03:47:08.080Z,95.41
2016-11-27T03:48:07.732Z,95.51
2016-11-27T03:49:08.328Z,95.03
2016-11-27T03:50:07.817Z,95.16
2016-11-27T03:51:08.384Z,95.72
2016-11-27T03:52:07.950Z,95.89
2016-11-27T03:53:08.251Z,96.37
2016-11-27T03:54:07.814Z,95.52
2016-11-27T03:55:08.417Z,95.96
2016-11-27T03:56:07.911Z,95.83
2016-11-27T03:57:08.573Z,95.28
2016-11-27T03:58:08.149Z,95.15
2016-11-27T03:59:07.731Z,95.24
2016-11-27T04:00:08.401Z,96.50
2016-11-27T04:01:07.845Z,96.78
2016-11-27T04:02:08.138Z,96.61
2016-11-27T04:03:07.764Z,96.49
2016-11-27T04:04:08.333Z,95.59
2016-11-27T04:05:07.851Z,95.75
2016-11-27T04:06:08.467Z,96.09
2016-11-27T04:07:08.124Z,96.72
2016-11-27T04:08:07.611Z,96.72
2016-11-27T04:09:08.195Z,96.82
2016-11-27T04:10:07.632Z,96.69
2016-11-27T04:11:08.170Z,97.05
2016-11-27T04:12:07.715Z,96.38
2016-11-27T04:13:08.378Z,95.69
2016-11-27T04:14:07.972Z,96.53
2016-11-27T04:15:07.529Z,96.11
2016-11-27T04:16:08.133Z,95.23
2016-11-27T04:17:07.800Z,95.32
2016-11-27T04:18:08.386Z,96.42
2016-11-27T04:19:07.878Z,96.84
2016-11-27T04:20:08.124Z,96.08
2016-11-27T04:21:07.808Z,96.09
2016-11-27T04:22:08.367Z,96.12
2016-11-27T04:23:08.330Z,96.02
2016-11-27T04:24:07.908Z,95.82
2016-11-27T04:25:08.597Z,95.29
2016-11-27T04:26:08.234Z,95.84
2016-11-27T04:27:07.746Z,96.99
2016-11-27T04:28:08.413Z,96.30
2016-11-27T04:29:07.994Z,96.51
2016-11-27T04:30:07.637Z,96.35
2016-11-27T04:31:08.228Z,95.59
2016-11-27T04:32:07.863Z,97.10
2016-11-27T04:33:08.560Z,97.51
2016-11-27T04:34:08.137Z,97.22
2016-11-27T04:35:07.723Z,97.16
2016-11-27T04:36:08.339Z,97.41
2016-11-27T04:37:07.894Z,96.26
2016-11-27T04:38:08.394Z,96.63
2016-11-27T04:39:07.579Z,96.56
2016-11-27T04:40:08.109Z,96.74
2016-11-27T04:41:07.652Z,95.64
2016-11-27T04:42:08.145Z,95.40
2016-11-27T04:43:08.041Z,95.97
2016-11-27T04:44:07.572Z,96.29
2016-11-27T04:45:08.118Z,95.46
2016-11-27T04:46:07.739Z,94.65
2016-11-27T04:47:08.349Z,94.80
2016-11-27T04:48:07.917Z,95.12
2016-11-27T04:49:08.604Z,95.88
2016-11-27T04:50:08.139Z,96.06
2016-11-27T04:51:07.717Z,95.80
2016-11-27T04:52:08.241Z,95.72
2016-11-27T04:53:08.013Z,95.66
2016-11-27T04:54:07.533Z,95.09
2016-11-27T04:55:08.148Z,95.19
2016-11-27T04:56:07.741Z,95.79
2016-11-27T04:57:08.393Z,96.17
2016-11-27T04:58:13.497Z,95.93
2016-11-27T04:59:08.188Z,94.99
2016-11-27T05:00:07.806Z,95.23
2016-11-27T05:01:08.478Z,94.12
2016-11-27T05:02:08.030Z,94.17
2016-11-27T05:03:07.610Z,93.74
2016-11-27T05:04:08.269Z,93.85
2016-11-27T05:05:07.823Z,94.70
2016-11-27T05:06:08.387Z,95.61
2016-11-27T05:07:07.838Z,95.66
2016-11-27T05:08:08.660Z,96.02
2016-11-27T05:09:08.239Z,96.29
2016-11-27T05:10:07.837Z,95.75
2016-11-27T05:11:08.342Z,95.92
2016-11-27T05:12:07.858Z,96.36
2016-11-27T05:13:08.433Z,97.70
2016-11-27T05:14:07.999Z,97.07
2016-11-27T05:15:07.493Z,95.99
2016-11-27T05:16:08.147Z,95.73
2016-11-27T05:17:07.811Z,95.12
2016-11-27T05:18:08.455Z,95.66
2016-11-27T05:19:07.933Z,95.89
2016-11-27T05:20:07.570Z,96.57
2016-11-27T05:21:08.231Z,96.69
2016-11-27T05:22:07.791Z,96.99
2016-11-27T05:23:08.802Z,95.82
2016-11-27T05:24:08.398Z,95.65
2016-11-27T05:25:10.851Z,96.51
2016-11-27T05:26:08.434Z,96.99
2016-11-27T05:27:08.101Z,96.59
2016-11-27T05:28:07.604Z,96.20
2016-11-27T05:29:08.393Z,96.39
2016-11-27T05:30:07.861Z,96.38
2016-11-27T05:31:08.228Z,96.60
2016-11-27T05:32:07.849Z,96.60
2016-11-27T05:33:08.431Z,96.66
2016-11-27T05:34:07.989Z,97.54
2016-11-27T05:35:07.484Z,96.62
2016-11-27T05:36:08.028Z,97.14
2016-11-27T05:37:07.593Z,97.20
2016-11-27T05:38:08.169Z,96.34
2016-11-27T05:39:07.652Z,96.29
2016-11-27T05:40:08.312Z,96.08
2016-11-27T05:41:07.798Z,96.30
2016-11-27T05:42:08.348Z,96.12
2016-11-27T05:43:07.942Z,96.12
2016-11-27T05:44:07.522Z,96.25
2016-11-27T05:45:08.072Z,96.07
2016-11-27T05:46:07.883Z,95.71
2016-11-27T05:47:10.042Z,95.74
2016-11-27T05:48:07.533Z,95.72
2016-11-27T05:49:08.035Z,95.82
2016-11-27T05:50:08.169Z,95.53
2016-11-27T05:51:07.622Z,95.92
2016-11-27T05:52:08.176Z,95.86
2016-11-27T05:53:07.681Z,94.79
2016-11-27T05:54:08.309Z,95.72
2016-11-27T05:55:07.895Z,95.08
2016-11-27T05:56:08.576Z,95.19
2016-11-27T05:57:08.181Z,95.08
2016-11-27T05:58:07.759Z,95.34
2016-11-27T05:59:08.401Z,96.04
2016-11-27T06:00:08.051Z,95.52
2016-11-27T06:01:07.555Z,95.69
2016-11-27T06:02:08.153Z,95.73
2016-11-27T06:03:07.656Z,95.59
2016-11-27T06:04:08.272Z,95.45
2016-11-27T06:05:07.804Z,95.83
2016-11-27T06:06:08.394Z,95.34
2016-11-27T06:07:07.919Z,95.47
2016-11-27T06:08:08.609Z,95.74
2016-11-27T06:09:08.201Z,95.91
2016-11-27T06:10:07.803Z,96.44
2016-11-27T06:11:08.486Z,97.20
2016-11-27T06:12:08.056Z,97.28
2016-11-27T06:13:07.639Z,97.08
2016-11-27T06:14:08.238Z,96.47
2016-11-27T06:15:07.811Z,96.32
2016-11-27T06:16:08.723Z,96.95
2016-11-27T06:17:07.936Z,96.89
2016-11-27T06:18:07.459Z,96.74
2016-11-27T06:19:08.881Z,96.53
2016-11-27T06:20:08.478Z,96.28
2016-11-27T06:21:08.263Z,96.23
2016-11-27T06:22:07.828Z,96.67
2016-11-27T06:23:08.524Z,96.33
2016-11-27T06:24:08.081Z,95.51
2016-11-27T06:25:07.638Z,95.73
2016-11-27T06:26:08.246Z,95.52
2016-11-27T06:27:08.523Z,96.28
2016-11-27T06:28:08.115Z,96.09
2016-11-27T06:29:07.713Z,95.69
2016-11-27T06:30:08.241Z,95.28
2016-11-27T06:31:07.744Z,96.24
2016-11-27T06:32:08.325Z,96.72
2016-11-27T06:33:07.869Z,97.57
2016-11-27T06:34:08.334Z,97.05
2016-11-27T06:35:08.309Z,96.41
2016-11-27T06:36:07.457Z,96.35
2016-11-27T06:37:08.046Z,96.40
2016-11-27T06:38:07.680Z,96.78
2016-11-27T06:39:08.326Z,96.81
2016-11-27T06:40:07.814Z,96.20
2016-11-27T06:41:08.368Z,95.99
2016-11-27T06:42:07.975Z,95.58
2016-11-27T06:43:07.579Z,95.20
2016-11-27T06:44:08.219Z,95.84
2016-11-27T06:45:07.698Z,95.31
2016-11-27T06:46:08.309Z,94.61
2016-11-27T06:47:07.918Z,94.46
2016-11-27T06:48:08.359Z,94.61
2016-11-27T06:49:07.996Z,95.06
2016-11-27T06:50:07.608Z,95.74
2016-11-27T06:51:08.057Z,95.87
2016-11-27T06:52:07.718Z,95.80
2016-11-27T06:53:08.697Z,95.87
2016-11-27T06:54:08.286Z,95.44
2016-11-27T06:55:07.808Z,95.42
2016-11-27T06:56:08.372Z,95.57
2016-11-27T06:57:07.955Z,95.31
2016-11-27T06:58:07.564Z,94.51
2016-11-27T06:59:08.228Z,94.60
2016-11-27T07:00:07.780Z,94.38
2016-11-27T07:01:08.264Z,94.54
2016-11-27T07:02:08.177Z,95.15
2016-11-27T07:03:07.700Z,94.90
2016-11-27T07:04:08.269Z,94.30
2016-11-27T07:05:08.092Z,94.54
2016-11-27T07:06:07.779Z,93.02
2016-11-27T07:07:08.353Z,92.53
2016-11-27T07:08:07.912Z,93.60
2016-11-27T07:09:08.500Z,92.70
2016-11-27T07:10:08.085Z,91.74
2016-11-27T07:11:07.656Z,92.13
2016-11-27T07:12:08.120Z,92.24
2016-11-27T07:13:07.638Z,91.92
2016-11-27T07:14:08.168Z,91.74
2016-11-27T07:15:07.795Z,91.72
2016-11-27T07:16:08.487Z,91.94
2016-11-27T07:17:08.249Z,91.58
2016-11-27T07:18:08.009Z,91.29
2016-11-27T07:19:07.550Z,91.23
2016-11-27T07:20:08.128Z,91.55
2016-11-27T07:21:08.479Z,91.84
2016-11-27T07:22:08.052Z,92.47
2016-11-27T07:23:07.665Z,92.50
2016-11-27T07:24:08.266Z,94.03
2016-11-27T07:25:07.858Z,93.54
2016-11-27T07:26:08.497Z,94.02
2016-11-27T07:27:08.068Z,93.28
2016-11-27T07:28:07.643Z,94.06
2016-11-27T07:29:08.228Z,93.32
2016-11-27T07:30:07.842Z,92.39
2016-11-27T07:31:08.477Z,90.66
2016-11-27T07:32:08.153Z,90.52
2016-11-27T07:33:07.678Z,90.37
2016-11-27T07:34:08.208Z,90.04
2016-11-27T07:35:07.796Z,89.99
2016-11-27T07:36:08.556Z,91.50
2016-11-27T07:37:08.126Z,89.99
2016-11-27T07:38:07.723Z,89.98
2016-11-27T07:39:08.322Z,90.97
2016-11-27T07:40:07.824Z,91.30
2016-11-27T07:41:08.448Z,89.49
2016-11-27T07:42:08.025Z,89.59
2016-11-27T07:43:07.581Z,89.61
2016-11-27T07:44:08.211Z,89.80
2016-11-27T07:45:07.751Z,89.92
2016-11-27T07:46:08.376Z,89.96
2016-11-27T07:47:07.940Z,89.88
2016-11-27T07:48:07.476Z,89.08
2016-11-27T07:49:07.966Z,89.73
2016-11-27T07:50:07.500Z,89.34
2016-11-27T07:51:07.986Z,89.22
2016-11-27T07:52:07.505Z,88.81
2016-11-27T07:53:08.136Z,88.49
2016-11-27T07:54:07.716Z,88.87
2016-11-27T07:55:08.362Z,89.57
2016-11-27T07:56:07.926Z,89.80
2016-11-27T07:57:08.554Z,89.23
2016-11-27T07:58:08.389Z,89.76
2016-11-27T07:59:07.992Z,90.22
2016-11-27T08:00:07.542Z,89.77
2016-11-27T08:01:08.048Z,89.27
2016-11-27T08:02:07.601Z,89.25
2016-11-27T08:03:08.045Z,89.33
2016-11-27T08:04:07.914Z,90.26
2016-11-27T08:05:08.587Z,90.69
2016-11-27T08:06:08.263Z,90.00
2016-11-27T08:07:07.784Z,89.63
2016-11-27T08:08:08.422Z,89.87
2016-11-27T08:09:08.069Z,90.38
2016-11-27T08:10:07.576Z,90.71
2016-11-27T08:11:08.153Z,89.95
2016-11-27T08:12:07.725Z,90.23
2016-11-27T08:13:08.437Z,89.99
2016-11-27T08:14:08.003Z,89.76
2016-11-27T08:15:07.535Z,89.19
2016-11-27T08:16:08.112Z,88.17
2016-11-27T08:17:07.890Z,88.26
2016-11-27T08:18:08.558Z,87.46
2016-11-27T08:19:08.211Z,88.41
2016-11-27T08:20:07.804Z,89.53
2016-11-27T08:21:08.455Z,89.61
2016-11-27T08:22:07.943Z,90.16
2016-11-27T08:23:07.441Z,90.37
2016-11-27T08:24:07.940Z,90.91
2016-11-27T08:25:07.456Z,91.34
2016-11-27T08:26:08.112Z,89.64
2016-11-27T08:27:07.649Z,89.64
2016-11-27T08:28:08.296Z,89.50
2016-11-27T08:29:07.839Z,88.77
2016-11-27T08:30:08.431Z,89.22
2016-11-27T08:31:08.002Z,88.64
2016-11-27T08:32:07.495Z,88.46
2016-11-27T08:33:08.034Z,87.77
2016-11-27T08:34:08.069Z,87.35
2016-11-27T08:35:07.628Z,87.59
2016-11-27T08:36:08.289Z,87.93
2016-11-27T08:37:07.814Z,88.61
2016-11-27T08:38:08.490Z,89.29
2016-11-27T08:39:08.140Z,88.25
2016-11-27T08:40:07.760Z,86.33
2016-11-27T08:41:08.337Z,86.40
2016-11-27T08:42:07.897Z,86.53
2016-11-27T08:43:08.524Z,84.65
2016-11-27T08:44:08.119Z,84.90
2016-11-27T08:45:07.662Z,85.56
2016-11-27T08:46:08.143Z,85.85
2016-11-27T08:47:07.664Z,86.63
2016-11-27T08:48:08.328Z,87.60
2016-11-27T08:49:08.194Z,87.96
2016-11-27T08:50:08.086Z,86.63
2016-11-27T08:51:07.677Z,86.60
2016-11-27T08:52:08.423Z,84.82
2016-11-27T08:53:08.033Z,84.71
2016-11-27T08:54:07.644Z,84.41
2016-11-27T08:55:08.422Z,85.57
2016-11-27T08:56:07.992Z,84.68
2016-11-27T08:57:07.637Z,85.02
2016-11-27T08:58:08.352Z,85.93
2016-11-27T08:59:07.962Z,83.69
2016-11-27T09:00:07.560Z,83.99
2016-11-27T09:01:08.784Z,84.38
2016-11-27T09:02:08.471Z,83.26
2016-11-27T09:03:07.914Z,84.23
2016-11-27T09:04:08.537Z,85.31
2016-11-27T09:05:08.174Z,85.31
2016-11-27T09:06:07.654Z,84.94
2016-11-27T09:07:08.266Z,83.89
2016-11-27T09:08:07.807Z,84.04
2016-11-27T09:09:08.483Z,83.60
2016-11-27T09:10:08.088Z,81.89
2016-11-27T09:11:07.867Z,82.30
2016-11-27T09:12:08.522Z,83.13
2016-11-27T09:13:08.173Z,83.03
2016-11-27T09:14:07.725Z,83.78
2016-11-27T09:15:08.174Z,83.30
2016-11-27T09:16:08.245Z,82.89
2016-11-27T09:17:08.039Z,82.76
2016-11-27T09:18:07.655Z,80.57
2016-11-27T09:19:08.273Z,81.75
2016-11-27T09:20:07.946Z,81.85
2016-11-27T09:21:07.548Z,82.78
2016-11-27T09:22:08.196Z,79.99
2016-11-27T09:23:07.815Z,80.40
2016-11-27T09:24:08.431Z,81.04
2016-11-27T09:25:08.051Z,80.41
2016-11-27T09:26:07.617Z,80.16
2016-11-27T09:27:08.151Z,80.80
2016-11-27T09:28:07.774Z,81.13
2016-11-27T09:29:08.279Z,81.80
2016-11-27T09:30:07.886Z,80.20
2016-11-27T09:31:08.543Z,81.17
2016-11-27T09:32:08.115Z,82.23
2016-11-27T09:33:07.775Z,80.73
2016-11-27T09:34:08.322Z,81.37
2016-11-27T09:35:13.416Z,81.87
2016-11-27T09:36:07.993Z,82.41
2016-11-27T09:37:07.524Z,82.69
2016-11-27T09:38:08.150Z,82.69
2016-11-27T09:39:07.672Z,82.93
2016-11-27T09:40:08.362Z,82.27
2016-11-27T09:41:07.916Z,82.38
2016-11-27T09:42:08.521Z,82.82
2016-11-27T09:43:08.407Z,83.18
2016-11-27T09:44:07.966Z,84.57
2016-11-27T09:45:07.567Z,82.07
2016-11-27T09:46:08.263Z,79.77
2016-11-27T09:47:07.748Z,79.37
2016-11-27T09:48:08.360Z,80.90
2016-11-27T09:49:07.899Z,80.60
2016-11-27T09:50:08.591Z,80.87
2016-11-27T09:51:08.168Z,81.40
2016-11-27T09:52:07.623Z,81.30
2016-11-27T09:53:08.235Z,81.65
2016-11-27T09:54:07.729Z,81.53
2016-11-27T09:55:08.361Z,81.03
2016-11-27T09:56:07.975Z,81.31
2016-11-27T09:57:07.478Z,81.09
2016-11-27T09:58:08.072Z,81.49
2016-11-27T09:59:07.659Z,81.00
2016-11-27T10:00:08.296Z,82.03
2016-11-27T10:01:07.856Z,81.80
2016-11-27T10:02:08.499Z,82.08
2016-11-27T10:03:13.768Z,82.12
2016-11-27T10:04:08.454Z,82.46
2016-11-27T10:05:08.044Z,81.89
2016-11-27T10:06:07.583Z,81.98
2016-11-27T10:07:08.161Z,81.96
2016-11-27T10:08:07.885Z,82.52
2016-11-27T10:09:08.549Z,82.92
2016-11-27T10:10:08.218Z,81.99
2016-11-27T10:11:07.723Z,82.41
2016-11-27T10:12:08.301Z,82.39
2016-11-27T10:13:07.864Z,83.33
2016-11-27T10:14:08.643Z,82.67
2016-11-27T10:15:08.281Z,81.89
2016-11-27T10:16:07.874Z,81.81
2016-11-27T10:17:08.593Z,81.46
2016-11-27T10:18:08.144Z,80.78
2016-11-27T10:19:07.622Z,81.25
2016-11-27T10:20:08.285Z,81.23
2016-11-27T10:21:07.943Z,81.61
2016-11-27T10:22:07.573Z,81.93
2016-11-27T10:23:08.192Z,81.77
2016-11-27T10:24:07.869Z,81.35
2016-11-27T10:25:08.440Z,80.70
2016-11-27T10:26:08.086Z,81.04
2016-11-27T10:27:07.593Z,80.57
2016-11-27T10:28:13.806Z,81.18
2016-11-27T10:29:08.550Z,81.27
2016-11-27T10:30:11.572Z,81.20
2016-11-27T10:31:08.228Z,80.22
2016-11-27T10:32:07.803Z,80.19
2016-11-27T10:33:08.441Z,79.45
2016-11-27T10:34:08.018Z,79.47
2016-11-27T10:35:07.590Z,81.10
2016-11-27T10:36:08.201Z,81.05
2016-11-27T10:37:07.794Z,80.51
2016-11-27T10:38:08.343Z,80.72
2016-11-27T10:39:13.397Z,80.33
2016-11-27T10:40:07.891Z,80.28
2016-11-27T10:41:08.463Z,80.65
2016-11-27T10:42:13.681Z,80.66
2016-11-27T10:43:08.418Z,80.57
2016-11-27T10:44:08.022Z,81.15
2016-11-27T10:45:07.738Z,82.53
2016-11-27T10:46:07.813Z,81.62
2016-11-27T10:47:08.473Z,81.93
2016-11-27T10:48:08.098Z,81.24
2016-11-27T10:49:07.734Z,81.42
2016-11-27T10:50:08.269Z,81.41
2016-11-27T10:51:07.758Z,81.34
2016-11-27T10:52:08.347Z,81.34
2016-11-27T10:53:07.918Z,81.01
2016-11-27T10:54:08.539Z,81.53
2016-11-27T10:55:08.456Z,81.11
2016-11-27T10:56:08.080Z,81.44
2016-11-27T10:57:07.763Z,81.29
2016-11-27T10:58:09.151Z,81.42
2016-11-27T10:59:07.688Z,81.48
2016-11-27T11:00:08.326Z,80.91
2016-11-27T11:01:07.884Z,80.54
2016-11-27T11:02:08.527Z,80.92
2016-11-27T11:03:08.116Z,81.20
2016-11-27T11:04:07.640Z,83.54
2016-11-27T11:05:08.170Z,82.15
2016-11-27T11:06:07.966Z,82.41
2016-11-27T11:07:07.448Z,82.71
2016-11-27T11:08:08.065Z,80.73
2016-11-27T11:09:07.692Z,80.48
2016-11-27T11:10:08.273Z,80.94
2016-11-27T11:11:07.868Z,80.34
2016-11-27T11:12:08.533Z,79.75
2016-11-27T11:13:08.100Z,79.56
2016-11-27T11:14:07.620Z,79.19
2016-11-27T11:15:08.201Z,79.53
2016-11-27T11:16:07.805Z,79.66
2016-11-27T11:17:08.492Z,79.49
2016-11-27T11:18:08.162Z,78.08
2016-11-27T11:19:07.800Z,77.92
2016-11-27T11:20:08.396Z,77.56
2016-11-27T11:21:08.011Z,77.82
2016-11-27T11:22:07.571Z,77.79
2016-11-27T11:23:08.167Z,78.02
2016-11-27T11:24:07.682Z,77.50
2016-11-27T11:25:08.236Z,77.64
2016-11-27T11:26:07.924Z,77.08
2016-11-27T11:27:08.577Z,77.36
2016-11-27T11:28:08.170Z,76.79
2016-11-27T11:29:07.710Z,76.86
2016-11-27T11:30:08.369Z,76.52
2016-11-27T11:31:08.092Z,76.66
2016-11-27T11:32:07.603Z,76.43
2016-11-27T11:33:08.223Z,76.23
2016-11-27T11:34:07.711Z,76.77
2016-11-27T11:35:08.285Z,76.43
2016-11-27T11:36:08.482Z,75.95
2016-11-27T11:37:08.111Z,76.84
2016-11-27T11:38:07.747Z,76.81
2016-11-27T11:39:08.338Z,76.34
2016-11-27T11:40:07.906Z,76.46
2016-11-27T11:41:08.616Z,77.18
2016-11-27T11:42:08.238Z,77.72
2016-11-27T11:43:07.871Z,77.39
2016-11-27T11:44:08.535Z,76.35
2016-11-27T11:45:08.149Z,76.06
2016-11-27T11:46:07.622Z,76.57
2016-11-27T11:47:08.137Z,75.97
2016-11-27T11:48:07.711Z,76.01
2016-11-27T11:49:08.262Z,75.33
2016-11-27T11:50:07.840Z,75.60
2016-11-27T11:51:08.429Z,74.92
2016-11-27T11:52:08.005Z,75.62
2016-11-27T11:53:07.528Z,75.20
2016-11-27T11:54:08.160Z,74.92
2016-11-27T11:55:07.740Z,74.86
2016-11-27T11:56:08.375Z,74.84
2016-11-27T11:57:08.052Z,73.97
2016-11-27T11:58:07.660Z,74.21
2016-11-27T11:59:08.328Z,73.53
2016-11-27T12:00:08.231Z,73.58
2016-11-27T12:01:07.851Z,72.84
2016-11-27T12:02:08.432Z,73.41
2016-11-27T12:03:08.080Z,73.21
2016-11-27T12:04:07.627Z,73.25
2016-11-27T12:05:08.214Z,73.28
2016-11-27T12:06:07.786Z,72.31
2016-11-27T12:07:08.395Z,72.80
2016-11-27T12:08:08.029Z,73.87
2016-11-27T12:09:07.512Z,74.29
2016-11-27T12:10:08.136Z,73.21
2016-11-27T12:11:07.763Z,71.16
2016-11-27T12:12:08.460Z,71.74
2016-11-27T12:13:08.123Z,72.19
2016-11-27T12:14:07.700Z,71.82
2016-11-27T12:15:08.276Z,72.64
2016-11-27T12:16:07.760Z,71.94
2016-11-27T12:17:08.509Z,71.45
2016-11-27T12:18:08.137Z,71.40
2016-11-27T12:19:07.664Z,71.48
2016-11-27T12:20:09.100Z,72.64
2016-11-27T12:21:07.962Z,71.84
2016-11-27T12:22:07.552Z,72.07
2016-11-27T12:23:26.374Z,72.36
2016-11-27T12:24:08.819Z,72.32
2016-11-27T12:25:14.965Z,72.84
2016-11-27T12:26:07.634Z,72.29
2016-11-27T12:27:08.268Z,72.28
2016-11-27T12:28:07.769Z,72.13
2016-11-27T12:29:08.204Z,71.77
2016-11-27T12:30:13.992Z,71.73
2016-11-27T12:31:07.490Z,71.67
2016-11-27T12:32:08.187Z,72.22
2016-11-27T12:33:07.707Z,72.03
2016-11-27T12:34:08.347Z,72.47
2016-11-27T12:35:07.971Z,71.94
2016-11-27T12:36:07.592Z,72.84
2016-11-27T12:37:08.230Z,73.13
2016-11-27T12:38:07.819Z,72.52
2016-11-27T12:39:08.451Z,72.72
2016-11-27T12:40:08.009Z,72.06
2016-11-27T12:41:07.564Z,72.00
2016-11-27T12:42:08.155Z,71.80
2016-11-27T12:43:07.756Z,71.02
2016-11-27T12:44:08.534Z,72.13
2016-11-27T12:45:08.180Z,71.14
2016-11-27T12:46:07.765Z,71.98
2016-11-27T12:47:08.383Z,71.87
2016-11-27T12:48:07.936Z,71.47
2016-11-27T12:49:08.583Z,71.70
2016-11-27T12:50:08.193Z,72.49
2016-11-27T12:51:07.761Z,72.40
2016-11-27T12:52:08.447Z,72.17